AirNav   Pilot Hours Calculator
 
 690 users online  

U30 Temple Bar Airport
Temple Bar, Arizona, USA

GOING TO TEMPLE BAR?


FAA INFORMATION EFFECTIVE 20 JUNE 2019

Location

FAA Identifier: U30
Lat/Long: 36-01-13.6000N / 114-20-05.7000W
36-01.226667N / 114-20.095000W
36.0204444 / -114.3349167
(estimated)
Elevation: 1549 ft. / 472.1 m (surveyed)
Variation: 14E (1985)
From city: 1 mile SW of TEMPLE BAR, AZ
Time zone: UTC -7 (year round; does not observe DST)
Zip code: 86443

Airport Operations

Airport use: Open to the public
Activation date: 08/1961
Control tower: no
ARTCC: LOS ANGELES CENTER
FSS: PRESCOTT FLIGHT SERVICE STATION
NOTAMs facility: PRC (NOTAM-D service available)
Attendance: UNATNDD
Wind indicator: yes
Segmented circle: yes

Airport Communications

CTAF/UNICOM: 122.8
  • CALL 122.8 FOR TRANSPORTATION.

Nearby radio navigation aids

VOR radial/distance  VOR name  Freq  Var
BLDr072/25.7BOULDER CITY VORTAC116.7015E

Airport Services

Parking: tiedowns
Airframe service: NONE
Powerplant service: NONE
Bottled oxygen: NONE
Bulk oxygen: NONE

Runway Information

Runway 18/36

Dimensions: 3500 x 50 ft. / 1067 x 15 m
Surface: asphalt, in fair condition
NUMEROUS CRACKS ON RWY WITH LOOSE ROCK ON SURFACE.
Weight bearing capacity: 
Single wheel: 10.0
Runway edge markings: RUNWAY CENTERLINE FADED
RUNWAY 18  RUNWAY 36
Latitude: 36-01.509333N36-00.945000N
Longitude: 114-20.021000W114-20.169000W
Traffic pattern: rightleft
Markings: basic, in poor conditionbasic, in poor condition
Runway end identifier lights: nono
Obstructions: none
2-4 FT SCATTERED BRUSH, 0-200 FT FM THLD, 60-125 FT RIGHT OF CNTRLN.
7 ft. brush, 290 ft. from runway, 10 ft. left of centerline, 12:1 slope to clear
2-4 FT SCATTERED BRUSH, 0-200 FT FM THLD, 60-125 FT LEFT OF CNTRLN.

Airport Ownership and Management from official FAA records

Ownership: Publicly-owned
Owner: NATIONAL PARK SERVICE
601 NEVADA HWY
BOULDER CITY, NV 89005
Phone (702) 293-2011
ALTERNATE PHONE: 702-293-8998. (24 HR NATIONAL PARK SERVICE DISPATCH)
Manager: SCOTT TAYLOR
601 NEVADA HWY
BOULDER CITY, NV 89005
Phone (702) 293-2011

Airport Operational Statistics

Aircraft operations: avg 79/month *
74% transient general aviation
26% air taxi
* for 12-month period ending 26 April 2019

Additional Remarks

BE ALERT FOR VEHICULAR TRAFFIC ON RY.
ACFT RAMP IN FAILED CONDITION WITH RUTS DUE TO EROSION, USE SOUTH HALF OF RAMP AREA.
FOR CD CTC LOS ANGELES ARTCC AT 661-575-2079.
LANDING IS RECOMMENDED UPHILL TO THE SOUTH. DUE TO +2% UP SLOPE FROM RUNWAY 18 TO RUNWAY 36
DO NOT USE TIE DOWN AREA AS PARL TWY; BACK TAXI ON RY.
RY 36 TERRAIN RISES AT CONSTANT RATE ABOVE RY.
RY 18/36 20 FT BERM 180 FT WEST ALONG FULL LENGTH OF RY.
WILDLIFE ON & INVOF ARPT.
BE ALERT FOR LOOSE ROCK ON NORTH TURN-A-ROUND AND RY.

Instrument Procedures

There are no published instrument procedures at U30.

Some nearby airports with instrument procedures:

KBVU - Boulder City Municipal Airport (26 nm W)
KLSV - Nellis Air Force Base (36 nm W)
KHND - Henderson Executive Airport (39 nm W)
KLAS - Mc Carran International Airport (40 nm W)
KVGT - North Las Vegas Airport (43 nm W)
 
Loc | Ops | Rwys | IFR | FBO | Links
Com | Nav | Svcs | Stats | Notes
Area around U30 (Temple Bar Airport)
 
Road maps at: MapQuest Bing Google
 
Aerial photo
WARNING: Photo may not be current or correct
Aerial photo of U30 (Temple Bar Airport)
Photo by Jim Armstrong
Photo taken 15-Nov-2006

Do you have a better or more recent aerial photo of Temple Bar Airport that you would like to share? If so, please send us your photo.

 
Sectional chart

 
Airport distance calculator
Flying to Temple Bar Airport? Find the distance to fly.

From to U30

Sunrise and sunset
Times for 20-Jun-2019
 Local
(UTC-7)
 Zulu
(UTC)
Morning civil twilight04:5111:51
Sunrise05:2212:22
Sunset19:5602:56
Evening civil twilight20:2603:26

Current date and time
Zulu (UTC)  20-Jun-2019 11:35:57
Local (UTC-7)  20-Jun-2019 04:35:57
 
METAR
KBVU 
26nm W 
201115Z AUTO VRB04KT 10SM SCT045 SCT055 27/01 A2978 RMK AO2
KLSV 
35nm W 
201058Z 15012KT 10SM CLR 32/04 A2973 RMK AO2A SLP009 WND DATA ESTMD T03210041 $
KHND 
39nm W 
201056Z AUTO 19015KT 10SM CLR 29/09 A2979 RMK AO2 SLP052 T02890089 $
KLAS 
40nm W 
201056Z 17007KT 10SM CLR 31/07 A2974 RMK AO2 SLP039 T03060067 $
KVGT 
43nm W 
201053Z AUTO 00000KT 10SM CLR 29/01 A2974 RMK AO2 SLP054 T02940011
TAF
KLSV 
35nm W 
200700Z 2007/2113 16012KT 9999 SKC QNH2974INS BECMG 2017/2018 17015G25KT 9999 SKC 520009 QNH2960INS TEMPO 2020/2104 19020G35KT 530009 BECMG 2107/2108 22010KT 9999 SKC QNH2961INS TX41/2022Z TN27/2013Z
KHND 
39nm W 
200520Z 2006/2106 21014G22KT P6SM SKC FM201700 22025G35KT P6SM SKC
KLAS 
40nm W 
200845Z 2009/2112 16010KT P6SM SKC FM201200 19012G20KT P6SM SKC FM201800 22025G35KT P6SM SKC FM210400 22020G30KT P6SM SKC FM210800 25012G20KT P6SM SKC
KVGT 
43nm W 
200520Z 2006/2106 21011KT P6SM SKC FM201000 17008KT P6SM SKC FM201600 17014G22KT P6SM SKC FM201800 22023G33KT P6SM SKC FM210400 22015G25KT P6SM SKC
NOTAMs
Click for the latest NOTAMs
NOTAMs are issued by the DoD/FAA and will open in a separate window not controlled by AirNav.

 

 
 

Would you like to see your business listed on this page?

 If your business provides an interesting product or service to pilots, flight crews, aircraft, or users of the Temple Bar Airport, you should consider listing it here.  To start the listing process, click on the button below
 
Add a business
 

Other Pages about Temple Bar Airport

Update a link
 
Copyright © AirNav, LLC. All rights reserved. Privacy Policy  Contact